Time,TemperatureF,DewpointF,PressureIn,WindDirection,WindDirectionDegrees,WindSpeedMPH,WindSpeedGustMPH,Humidity,HourlyPrecipIn,Conditions,Clouds,dailyrainin,SolarRadiationWatts/m^2,SoftwareType,DateUTC
2013-01-02 00:01:00,54.9,52.9,29.96,SW,232,2.3,2.3,93,0.00,CLR,,0.00,0.0,WeatherDisplay:10.37,2013-01-02 05:01:00,
2013-01-02 00:03:00,55.1,53.4,29.96,SW,232,4.6,4.6,94,0.00,CLR,,0.00,0.0,WeatherDisplay:10.37,2013-01-02 05:03:00,
2013-01-02 00:08:00,55.5,53.8,29.96,SW,232,4.6,4.6,94,0.00,CLR,,0.00,0.0,WeatherDisplay:10.37,2013-01-02 05:08:00,
2013-01-02 00:13:00,56.2,54.2,29.96,SW,229,3.5,3.5,93,0.00,CLR,,0.00,0.0,WeatherDisplay:10.37,2013-01-02 05:13:00,
2013-01-02 00:18:00,55.9,53.9,29.96,SW,229,2.3,2.3,93,0.00,CLR,,0.00,0.0,WeatherDisplay:10.37,2013-01-02 05:18:00,
2013-01-02 00:23:00,55.7,53.7,29.96,SW,229,1.1,1.5,93,0.00,CLR,,0.00,0.0,WeatherDisplay:10.37,2013-01-02 05:23:00,
2013-01-02 00:28:00,55.6,53.6,29.96,SW,229,4.6,4.6,93,0.00,CLR,,0.00,0.0,WeatherDisplay:10.37,2013-01-02 05:28:00,
2013-01-02 00:33:00,55.6,53.9,29.96,SW,229,2.3,2.3,94,0.00,CLR,,0.00,0.0,WeatherDisplay:10.37,2013-01-02 05:33:00,
2013-01-02 00:38:00,55.5,53.8,29.96,SW,229,2.3,2.3,94,0.00,CLR,,0.00,0.0,WeatherDisplay:10.37,2013-01-02 05:38:00,
2013-01-02 00:43:00,55.6,53.9,29.96,SW,229,2.3,2.3,94,0.00,CLR,,0.00,0.0,WeatherDisplay:10.37,2013-01-02 05:43:00,
2013-01-02 00:48:00,55.7,54.0,29.95,SW,229,3.5,3.5,94,0.00,CLR,,0.00,0.0,WeatherDisplay:10.37,2013-01-02 05:48:00,
2013-01-02 00:53:00,55.9,54.2,29.95,SW,229,3.5,4.0,94,0.00,CLR,,0.00,0.0,WeatherDisplay:10.37,2013-01-02 05:53:00,
2013-01-02 00:58:00,56.5,54.8,29.95,SW,229,4.6,4.6,94,0.00,CLR,,0.00,0.0,WeatherDisplay:10.37,2013-01-02 05:58:00,
2013-01-02 01:03:00,57.2,55.5,29.95,SW,229,5.8,5.8,94,0.00,CLR,,0.00,0.0,WeatherDisplay:10.37,2013-01-02 06:03:00,
2013-01-02 01:08:00,57.7,55.7,29.95,SW,229,6.9,6.9,93,0.00,CLR,,0.00,0.0,WeatherDisplay:10.37,2013-01-02 06:08:00,
2013-01-02 01:13:00,58.4,56.1,29.95,SW,229,4.6,4.6,92,0.00,CLR,,0.00,0.0,WeatherDisplay:10.37,2013-01-02 06:13:00,
2013-01-02 01:18:00,58.5,55.9,29.95,SW,229,3.5,3.5,91,0.00,CLR,,0.00,0.0,WeatherDisplay:10.37,2013-01-02 06:18:00,
2013-01-02 01:23:00,58.7,56.1,29.95,SW,229,5.8,5.8,91,0.00,CLR,,0.00,0.0,WeatherDisplay:10.37,2013-01-02 06:23:00,
2013-01-02 01:28:00,58.9,56.0,29.95,SW,229,3.5,3.5,90,0.00,CLR,,0.00,0.0,WeatherDisplay:10.37,2013-01-02 06:28:00,
2013-01-02 01:33:00,58.3,55.4,29.94,SW,229,1.1,1.1,90,0.00,CLR,,0.00,0.0,WeatherDisplay:10.37,2013-01-02 06:33:00,
2013-01-02 01:38:00,57.3,54.7,29.94,SW,229,1.1,1.1,91,0.00,CLR,,0.00,0.0,WeatherDisplay:10.37,2013-01-02 06:38:00,
2013-01-02 01:44:00,56.5,53.9,29.94,SW,229,0.0,0.0,91,0.00,CLR,,0.00,0.0,WeatherDisplay:10.37,2013-01-02 06:44:00,
2013-01-02 01:49:00,56.0,53.7,29.93,SW,229,0.0,0.0,92,0.00,CLR,,0.00,0.0,WeatherDisplay:10.37,2013-01-02 06:49:00,
2013-01-02 01:54:00,55.8,53.8,29.93,SW,229,0.0,0.0,93,0.00,CLR,,0.00,0.0,WeatherDisplay:10.37,2013-01-02 06:54:00,
2013-01-02 01:59:00,55.7,53.7,29.93,SW,229,0.0,0.0,93,0.00,CLR,,0.00,0.0,WeatherDisplay:10.37,2013-01-02 06:59:00,
2013-01-02 02:04:00,55.5,53.5,29.94,SW,229,0.0,0.0,93,0.00,CLR,,0.00,0.0,WeatherDisplay:10.37,2013-01-02 07:04:00,
2013-01-02 02:09:00,55.1,53.1,29.94,SW,229,2.3,2.3,93,0.00,CLR,,0.00,0.0,WeatherDisplay:10.37,2013-01-02 07:09:00,
2013-01-02 02:14:00,55.0,53.3,29.94,SW,229,0.0,0.0,94,0.00,CLR,,0.00,0.0,WeatherDisplay:10.37,2013-01-02 07:14:00,
2013-01-02 02:19:00,54.8,53.1,29.94,SW,229,0.0,0.0,94,0.00,CLR,,0.00,0.0,WeatherDisplay:10.37,2013-01-02 07:19:00,
2013-01-02 02:24:00,54.6,52.9,29.94,SW,229,0.0,0.0,94,0.00,CLR,,0.00,0.0,WeatherDisplay:10.37,2013-01-02 07:24:00,
2013-01-02 02:29:00,54.5,52.8,29.95,SW,229,0.0,0.0,94,0.00,CLR,,0.00,0.0,WeatherDisplay:10.37,2013-01-02 07:29:00,
2013-01-02 02:34:00,54.5,52.8,29.95,SW,229,0.0,0.0,94,0.00,CLR,,0.00,0.0,WeatherDisplay:10.37,2013-01-02 07:34:00,
2013-01-02 02:39:00,54.4,52.7,29.95,SW,229,0.0,0.0,94,0.00,CLR,,0.00,0.0,WeatherDisplay:10.37,2013-01-02 07:39:00,
2013-01-02 02:44:00,54.3,52.9,29.95,SW,229,0.0,0.0,95,0.00,CLR,,0.00,0.0,WeatherDisplay:10.37,2013-01-02 07:44:00,
2013-01-02 02:49:00,54.1,52.4,29.95,SW,229,0.0,0.0,94,0.00,CLR,,0.00,0.0,WeatherDisplay:10.37,2013-01-02 07:49:00,
2013-01-02 02:54:00,54.0,52.3,29.95,SW,229,0.0,0.0,94,0.00,CLR,,0.00,0.0,WeatherDisplay:10.37,2013-01-02 07:54:00,
2013-01-02 02:59:00,53.8,52.4,29.95,SW,229,0.0,0.0,95,0.00,CLR,,0.00,0.0,WeatherDisplay:10.37,2013-01-02 07:59:00,
2013-01-02 03:04:00,53.8,52.4,29.95,SW,229,0.0,0.0,95,0.00,CLR,,0.00,0.0,WeatherDisplay:10.37,2013-01-02 08:04:00,
2013-01-02 03:09:00,53.8,52.4,29.95,SW,229,0.0,0.0,95,0.00,CLR,,0.00,0.0,WeatherDisplay:10.37,2013-01-02 08:09:00,
2013-01-02 03:14:00,53.8,52.4,29.95,SW,229,0.0,0.0,95,0.00,CLR,,0.00,0.0,WeatherDisplay:10.37,2013-01-02 08:14:00,
2013-01-02 03:19:00,53.7,52.3,29.95,SW,229,0.0,0.0,95,0.00,CLR,,0.00,0.0,WeatherDisplay:10.37,2013-01-02 08:19:00,
2013-01-02 03:24:00,53.6,52.2,29.95,SW,229,0.0,0.0,95,0.00,CLR,,0.00,0.0,WeatherDisplay:10.37,2013-01-02 08:24:00,
2013-01-02 03:29:00,53.7,52.3,29.95,SW,229,0.0,0.0,95,0.00,CLR,,0.00,0.0,WeatherDisplay:10.37,2013-01-02 08:29:00,
2013-01-02 03:34:00,53.7,52.3,29.95,SW,229,0.0,0.0,95,0.00,CLR,,0.00,0.0,WeatherDisplay:10.37,2013-01-02 08:34:00,
2013-01-02 03:39:00,53.8,52.4,29.95,SW,229,0.0,0.0,95,0.00,CLR,,0.00,0.0,WeatherDisplay:10.37,2013-01-02 08:39:00,
2013-01-02 03:44:00,53.9,52.5,29.95,SW,229,2.3,2.3,95,0.00,CLR,,0.00,0.0,WeatherDisplay:10.37,2013-01-02 08:44:00,
2013-01-02 03:49:00,54.1,52.7,29.95,SW,229,3.5,3.5,95,0.00,CLR,,0.00,0.0,WeatherDisplay:10.37,2013-01-02 08:49:00,
2013-01-02 03:54:00,54.4,53.0,29.95,SW,229,2.3,0.0,95,0.00,CLR,,0.00,0.0,WeatherDisplay:10.37,2013-01-02 08:54:00,
2013-01-02 03:59:00,54.8,53.4,29.95,SW,229,0.0,0.0,95,0.00,CLR,,0.00,0.0,WeatherDisplay:10.37,2013-01-02 08:59:00,
2013-01-02 04:04:00,54.8,53.4,29.95,SW,229,0.0,0.0,95,0.00,FEW,,0.00,0.0,WeatherDisplay:10.37,2013-01-02 09:04:00,
2013-01-02 04:09:00,54.8,53.4,29.95,SW,229,1.1,1.1,95,0.00,FEW,,0.00,0.0,WeatherDisplay:10.37,2013-01-02 09:09:00,
2013-01-02 04:14:00,54.9,53.5,29.95,SW,229,2.3,2.3,95,0.00,FEW,,0.00,0.0,WeatherDisplay:10.37,2013-01-02 09:14:00,
2013-01-02 04:19:00,55.2,53.8,29.95,SW,229,2.2,2.6,95,0.00,FEW,,0.00,0.0,WeatherDisplay:10.37,2013-01-02 09:19:00,
2013-01-02 04:24:00,55.5,54.1,29.95,SW,229,3.5,3.5,95,0.00,FEW,,0.00,0.0,WeatherDisplay:10.37,2013-01-02 09:24:00,
2013-01-02 04:29:00,55.8,54.4,29.95,SW,229,2.3,2.3,95,0.00,FEW,,0.00,0.0,WeatherDisplay:10.37,2013-01-02 09:29:00,
2013-01-02 04:35:00,55.7,54.3,29.95,SW,229,2.3,2.4,95,0.00,FEW,,0.00,0.0,WeatherDisplay:10.37,2013-01-02 09:35:00,
2013-01-02 04:40:00,55.6,54.2,29.95,SW,229,3.5,3.5,95,0.00,FEW,,0.00,0.0,WeatherDisplay:10.37,2013-01-02 09:40:00,
2013-01-02 04:45:00,55.9,54.5,29.95,SW,229,3.5,3.5,95,0.00,FEW,,0.00,0.0,WeatherDisplay:10.37,2013-01-02 09:45:00,
2013-01-02 04:50:00,55.8,54.4,29.95,SW,229,3.5,3.5,95,0.00,FEW,,0.00,0.0,WeatherDisplay:10.37,2013-01-02 09:50:00,
2013-01-02 04:55:00,56.0,54.6,29.95,SW,229,3.5,3.5,95,0.00,FEW,,0.00,0.0,WeatherDisplay:10.37,2013-01-02 09:55:00,
2013-01-02 05:00:00,56.3,54.9,29.94,SW,229,5.8,5.8,95,0.00,FEW,,0.00,0.0,WeatherDisplay:10.37,2013-01-02 10:00:00,
2013-01-02 05:05:00,56.8,55.4,29.94,SW,226,4.6,4.6,95,0.00,FEW,,0.00,0.0,WeatherDisplay:10.37,2013-01-02 10:05:00,
2013-01-02 05:10:00,57.5,56.1,29.94,SW,226,4.6,4.6,95,0.00,FEW,,0.00,0.0,WeatherDisplay:10.37,2013-01-02 10:10:00,
2013-01-02 05:15:00,58.0,56.3,29.94,SW,226,5.8,5.8,94,0.00,FEW,,0.00,0.0,WeatherDisplay:10.37,2013-01-02 10:15:00,
2013-01-02 05:20:00,58.4,56.7,29.94,SW,226,4.6,4.6,94,0.00,FEW,,0.00,0.0,WeatherDisplay:10.37,2013-01-02 10:20:00,
2013-01-02 05:25:00,58.4,56.4,29.94,SW,226,2.3,2.3,93,0.00,FEW,,0.00,0.0,WeatherDisplay:10.37,2013-01-02 10:25:00,
2013-01-02 05:30:00,58.2,56.2,29.94,SW,226,3.5,3.5,93,0.00,FEW,,0.00,0.0,WeatherDisplay:10.37,2013-01-02 10:30:00,
2013-01-02 05:35:00,58.4,56.4,29.94,SW,226,4.6,4.6,93,0.00,FEW,,0.00,0.0,WeatherDisplay:10.37,2013-01-02 10:35:00,
2013-01-02 05:40:00,58.2,55.9,29.94,SW,226,4.6,4.6,92,0.00,FEW,,0.00,0.0,WeatherDisplay:10.37,2013-01-02 10:40:00,
2013-01-02 05:45:00,58.1,56.1,29.94,SW,226,3.5,3.5,93,0.00,FEW,,0.00,0.0,WeatherDisplay:10.37,2013-01-02 10:45:00,
2013-01-02 05:50:00,58.0,55.7,29.94,SW,226,3.5,3.5,92,0.00,FEW,,0.00,0.0,WeatherDisplay:10.37,2013-01-02 10:50:00,
2013-01-02 05:56:00,58.4,56.4,29.94,SW,226,4.6,4.6,93,0.00,FEW,,0.00,0.0,WeatherDisplay:10.37,2013-01-02 10:56:00,
2013-01-02 06:01:00,58.4,56.1,29.93,SW,226,2.3,2.3,92,0.00,CLR,,0.00,0.0,WeatherDisplay:10.37,2013-01-02 11:01:00,
2013-01-02 06:06:00,58.3,56.0,29.93,SW,222,4.6,4.6,92,0.00,CLR,,0.00,0.0,WeatherDisplay:10.37,2013-01-02 11:06:00,
2013-01-02 06:11:00,58.4,56.4,29.93,SSW,210,4.6,4.6,93,0.00,CLR,,0.00,0.0,WeatherDisplay:10.37,2013-01-02 11:11:00,
2013-01-02 06:16:00,58.4,56.1,29.94,SSW,210,3.5,3.5,92,0.00,CLR,,0.00,0.0,WeatherDisplay:10.37,2013-01-02 11:16:00,
2013-01-02 06:21:00,57.6,55.3,29.94,SSW,210,1.1,1.1,92,0.00,CLR,,0.00,0.0,WeatherDisplay:10.37,2013-01-02 11:21:00,
2013-01-02 06:26:00,56.9,54.9,29.94,SSW,210,0.0,0.0,93,0.00,CLR,,0.00,0.0,WeatherDisplay:10.37,2013-01-02 11:26:00,
2013-01-02 06:31:00,56.6,54.6,29.94,SSW,210,2.3,2.3,93,0.00,CLR,,0.00,0.0,WeatherDisplay:10.37,2013-01-02 11:31:00,
2013-01-02 06:36:00,56.4,54.4,29.94,SSW,210,2.3,2.3,93,0.00,CLR,,0.00,0.0,WeatherDisplay:10.37,2013-01-02 11:36:00,
2013-01-02 06:41:00,56.0,54.3,29.94,SSW,210,0.0,0.0,94,0.00,CLR,,0.00,0.0,WeatherDisplay:10.37,2013-01-02 11:41:00,
2013-01-02 06:46:00,55.7,54.0,29.94,SSW,210,3.5,3.5,94,0.00,CLR,,0.00,0.0,WeatherDisplay:10.37,2013-01-02 11:46:00,
2013-01-02 06:51:00,55.7,54.0,29.94,SSW,210,3.5,3.5,94,0.00,CLR,,0.00,0.0,WeatherDisplay:10.37,2013-01-02 11:51:00,
2013-01-02 06:56:00,55.9,54.2,29.94,SSW,210,5.5,5.5,94,0.00,CLR,,0.00,0.0,WeatherDisplay:10.37,2013-01-02 11:56:00,
2013-01-02 07:01:00,56.0,54.3,29.95,SSW,211,2.3,2.3,94,0.00,FEW,,0.00,0.0,WeatherDisplay:10.37,2013-01-02 12:01:00,
2013-01-02 07:06:00,55.7,54.0,29.95,SSW,211,2.3,2.3,94,0.00,FEW,,0.00,0.0,WeatherDisplay:10.37,2013-01-02 12:06:00,
2013-01-02 07:11:00,55.7,54.0,29.95,SSW,211,2.3,2.3,94,0.00,FEW,,0.00,0.0,WeatherDisplay:10.37,2013-01-02 12:11:00,
2013-01-02 07:16:00,55.8,54.4,29.95,SSW,211,3.5,3.5,95,0.00,FEW,,0.00,0.0,WeatherDisplay:10.37,2013-01-02 12:16:00,
2013-01-02 07:21:00,56.3,54.9,29.95,SSW,211,0.0,0.0,95,0.00,FEW,,0.00,0.0,WeatherDisplay:10.37,2013-01-02 12:21:00,
2013-01-02 07:26:00,56.4,54.7,29.95,SSW,211,2.3,2.3,94,0.00,FEW,,0.00,5.0,WeatherDisplay:10.37,2013-01-02 12:26:00,
2013-01-02 07:31:00,55.9,54.2,29.95,SSW,211,2.3,2.3,94,0.00,FEW,,0.00,9.0,WeatherDisplay:10.37,2013-01-02 12:31:00,
2013-01-02 07:36:00,55.9,54.5,29.95,SSW,211,1.1,1.1,95,0.00,FEW,,0.00,12.0,WeatherDisplay:10.37,2013-01-02 12:36:00,
2013-01-02 07:41:00,55.9,54.5,29.95,SSW,211,0.0,0.0,95,0.00,FEW,,0.00,18.0,WeatherDisplay:10.37,2013-01-02 12:41:00,
2013-01-02 07:46:00,55.8,54.4,29.96,SSW,211,0.0,0.0,95,0.00,FEW,,0.00,23.0,WeatherDisplay:10.37,2013-01-02 12:46:00,
2013-01-02 07:51:00,55.8,54.4,29.96,SSW,211,0.0,0.0,95,0.00,FEW,,0.00,26.0,WeatherDisplay:10.37,2013-01-02 12:51:00,
2013-01-02 07:56:00,55.8,54.4,29.96,SSW,211,0.0,0.0,95,0.00,FEW,,0.00,30.0,WeatherDisplay:10.37,2013-01-02 12:56:00,
2013-01-02 08:01:00,56.0,54.6,29.96,SSW,211,0.0,0.0,95,0.00,SCT,,0.00,35.0,WeatherDisplay:10.37,2013-01-02 13:01:00,
2013-01-02 08:06:00,56.4,55.0,29.96,SSW,211,0.0,0.0,95,0.00,SCT,,0.00,42.0,WeatherDisplay:10.37,2013-01-02 13:06:00,
2013-01-02 08:11:00,56.7,55.3,29.96,SSW,211,0.0,0.0,95,0.00,SCT,,0.00,44.0,WeatherDisplay:10.37,2013-01-02 13:11:00,
2013-01-02 08:16:00,57.1,55.7,29.96,SSW,211,0.0,0.0,95,0.00,SCT,,0.00,44.0,WeatherDisplay:10.37,2013-01-02 13:16:00,
2013-01-02 08:21:00,57.5,56.1,29.96,SSW,211,0.0,0.0,95,0.00,SCT,,0.00,46.0,WeatherDisplay:10.37,2013-01-02 13:21:00,
2013-01-02 08:26:00,58.1,56.7,29.96,SSW,211,2.3,2.3,95,0.00,SCT,,0.00,49.0,WeatherDisplay:10.37,2013-01-02 13:26:00,
2013-01-02 08:31:00,58.5,57.1,29.96,SSW,207,3.5,3.5,95,0.00,SCT,,0.00,53.0,WeatherDisplay:10.37,2013-01-02 13:31:00,
2013-01-02 08:36:00,59.5,58.1,29.96,SSW,207,4.6,4.6,95,0.00,SCT,,0.00,56.0,WeatherDisplay:10.37,2013-01-02 13:36:00,
2013-01-02 08:41:00,60.6,59.2,29.96,SW,229,5.8,5.8,95,0.00,SCT,,0.00,58.0,WeatherDisplay:10.37,2013-01-02 13:41:00,
2013-01-02 08:46:00,61.6,59.9,29.96,SSW,200,8.1,8.1,94,0.00,SCT,,0.00,63.0,WeatherDisplay:10.37,2013-01-02 13:46:00,
2013-01-02 08:51:00,62.1,59.7,29.96,SW,225,4.4,4.4,92,0.00,SCT,,0.00,67.0,WeatherDisplay:10.37,2013-01-02 13:51:00,
2013-01-02 08:56:00,62.7,60.0,29.96,SSW,210,6.9,6.9,91,0.00,SCT,,0.00,77.0,WeatherDisplay:10.37,2013-01-02 13:56:00,
2013-01-02 09:01:00,63.1,60.4,29.97,SSW,211,7.7,7.7,91,0.00,SCT,,0.00,225.0,WeatherDisplay:10.37,2013-01-02 14:01:00,
2013-01-02 09:06:00,63.7,60.7,29.97,WSW,238,10.4,10.4,90,0.00,SCT,,0.00,237.0,WeatherDisplay:10.37,2013-01-02 14:06:00,
2013-01-02 09:11:00,64.5,61.2,29.97,SSW,203,8.8,8.8,89,0.00,SCT,,0.00,251.0,WeatherDisplay:10.37,2013-01-02 14:11:00,
2013-01-02 09:16:00,64.9,61.6,29.97,SW,219,8.1,8.1,89,0.00,SCT,,0.00,271.0,WeatherDisplay:10.37,2013-01-02 14:16:00,
2013-01-02 09:21:00,65.6,61.9,29.97,SW,218,8.1,8.1,88,0.00,SCT,,0.00,285.0,WeatherDisplay:10.37,2013-01-02 14:21:00,
2013-01-02 09:26:00,66.3,62.3,29.97,SW,230,8.8,8.8,87,0.00,SCT,,0.00,304.0,WeatherDisplay:10.37,2013-01-02 14:26:00,
2013-01-02 09:31:00,66.8,62.5,29.97,SW,233,12.7,12.7,86,0.00,SCT,,0.00,322.0,WeatherDisplay:10.37,2013-01-02 14:31:00,
2013-01-02 09:36:00,67.4,63.1,29.97,SW,236,9.2,9.2,86,0.00,SCT,,0.00,350.0,WeatherDisplay:10.37,2013-01-02 14:36:00,
2013-01-02 09:41:00,67.8,63.1,29.97,SW,227,8.1,8.1,85,0.00,SCT,,0.00,367.0,WeatherDisplay:10.37,2013-01-02 14:41:00,
2013-01-02 09:46:00,68.6,63.6,29.98,SSW,202,8.1,8.1,84,0.00,SCT,,0.00,378.0,WeatherDisplay:10.37,2013-01-02 14:46:00,
2013-01-02 09:51:00,69.2,64.2,29.98,SW,225,11.0,11.0,84,0.00,SCT,,0.00,394.0,WeatherDisplay:10.37,2013-01-02 14:51:00,
2013-01-02 09:56:00,69.5,63.8,29.98,SW,227,13.2,13.2,82,0.00,SCT,,0.00,397.0,WeatherDisplay:10.37,2013-01-02 14:56:00,
2013-01-02 10:01:00,69.8,64.1,29.98,SW,217,11.5,11.5,82,0.00,SCT,,0.00,422.0,WeatherDisplay:10.37,2013-01-02 15:01:00,
2013-01-02 10:06:00,70.2,64.1,29.98,SW,219,16.1,16.1,81,0.00,SCT,,0.00,431.0,WeatherDisplay:10.37,2013-01-02 15:06:00,
2013-01-02 10:11:00,70.9,64.4,29.98,SW,233,9.2,9.2,80,0.00,SCT,,0.00,446.0,WeatherDisplay:10.37,2013-01-02 15:11:00,
2013-01-02 10:16:00,71.2,64.7,29.98,SW,218,12.1,12.1,80,0.00,SCT,,0.00,459.0,WeatherDisplay:10.37,2013-01-02 15:16:00,
2013-01-02 10:21:00,72.0,65.1,29.98,SSW,210,7.7,7.7,79,0.00,SCT,,0.00,468.0,WeatherDisplay:10.37,2013-01-02 15:21:00,
2013-01-02 10:26:00,72.6,65.3,29.98,WSW,239,10.4,10.4,78,0.00,SCT,,0.00,462.0,WeatherDisplay:10.37,2013-01-02 15:26:00,
2013-01-02 10:31:00,72.8,65.5,29.98,SW,218,6.9,6.9,78,0.00,SCT,,0.00,452.0,WeatherDisplay:10.37,2013-01-02 15:31:00,
2013-01-02 10:36:00,73.2,65.6,29.98,SW,221,5.8,5.8,77,0.00,SCT,,0.00,506.0,WeatherDisplay:10.37,2013-01-02 15:36:00,
2013-01-02 10:41:00,74.0,66.0,29.98,SSW,208,11.0,11.0,76,0.00,SCT,,0.00,512.0,WeatherDisplay:10.37,2013-01-02 15:41:00,
2013-01-02 10:46:00,74.4,65.6,29.97,SW,231,15.0,15.0,74,0.00,SCT,,0.00,524.0,WeatherDisplay:10.37,2013-01-02 15:46:00,
2013-01-02 10:51:00,74.4,65.6,29.97,SW,225,10.4,10.4,74,0.00,SCT,,0.00,527.0,WeatherDisplay:10.37,2013-01-02 15:51:00,
2013-01-02 10:56:00,74.8,65.6,29.97,SW,229,10.4,10.4,73,0.00,SCT,,0.00,533.0,WeatherDisplay:10.37,2013-01-02 15:56:00,
2013-01-02 11:01:00,75.1,66.2,29.96,SW,234,6.9,6.9,74,0.00,SCT,,0.00,527.0,WeatherDisplay:10.37,2013-01-02 16:01:00,
2013-01-02 11:06:00,76.2,66.5,29.96,SW,229,9.2,9.2,72,0.00,SCT,,0.00,554.0,WeatherDisplay:10.37,2013-01-02 16:06:00,
2013-01-02 11:11:00,76.6,66.5,29.96,SW,232,6.9,7.5,71,0.00,SCT,,0.00,557.0,WeatherDisplay:10.37,2013-01-02 16:11:00,
2013-01-02 11:16:00,76.4,66.3,29.96,SW,221,10.4,10.4,71,0.00,SCT,,0.00,547.0,WeatherDisplay:10.37,2013-01-02 16:16:00,
2013-01-02 11:21:00,77.0,66.9,29.96,SW,215,7.7,7.7,71,0.00,SCT,,0.00,575.0,WeatherDisplay:10.37,2013-01-02 16:21:00,
2013-01-02 11:26:00,76.9,66.8,29.96,SW,226,8.1,8.1,71,0.00,SCT,,0.00,608.0,WeatherDisplay:10.37,2013-01-02 16:26:00,
2013-01-02 11:31:00,77.8,67.2,29.96,SW,234,4.6,4.6,70,0.00,SCT,,0.00,592.0,WeatherDisplay:10.37,2013-01-02 16:31:00,
2013-01-02 11:36:00,78.3,67.3,29.96,West,279,5.8,5.8,69,0.00,SCT,,0.00,714.0,WeatherDisplay:10.37,2013-01-02 16:36:00,
2013-01-02 11:41:00,78.2,67.2,29.96,SW,224,8.1,8.1,69,0.00,SCT,,0.00,250.0,WeatherDisplay:10.37,2013-01-02 16:41:00,
2013-01-02 11:46:00,77.5,67.4,29.95,SW,224,2.3,2.7,71,0.00,SCT,,0.00,348.0,WeatherDisplay:10.37,2013-01-02 16:46:00,
2013-01-02 11:51:00,76.9,66.8,29.95,SW,223,10.4,10.4,71,0.00,SCT,,0.00,195.0,WeatherDisplay:10.37,2013-01-02 16:51:00,
2013-01-02 11:56:00,76.5,66.8,29.95,SW,220,9.9,9.9,72,0.00,SCT,,0.00,193.0,WeatherDisplay:10.37,2013-01-02 16:56:00,
2013-01-02 12:01:00,76.9,67.6,29.95,SW,232,9.2,9.2,73,0.00,BKN,,0.00,728.0,WeatherDisplay:10.37,2013-01-02 17:01:00,
2013-01-02 12:06:00,77.6,67.9,29.95,SW,234,6.6,6.8,72,0.00,BKN,,0.00,151.0,WeatherDisplay:10.37,2013-01-02 17:06:00,
2013-01-02 12:12:00,76.7,67.0,29.95,SW,221,10.4,10.4,72,0.00,BKN,,0.00,487.0,WeatherDisplay:10.37,2013-01-02 17:12:00,
2013-01-02 12:17:00,77.3,68.0,29.95,SSW,213,5.8,5.8,73,0.00,BKN,,0.00,524.0,WeatherDisplay:10.37,2013-01-02 17:17:00,
2013-01-02 12:22:00,77.3,67.2,29.95,SW,223,1.1,1.1,71,0.00,BKN,,0.00,70.0,WeatherDisplay:10.37,2013-01-02 17:22:00,
2013-01-02 12:27:00,76.2,66.9,29.95,SW,223,1.1,1.1,73,0.00,BKN,,0.00,39.0,WeatherDisplay:10.37,2013-01-02 17:27:00,
2013-01-02 12:32:00,74.8,67.1,29.95,SW,225,3.5,3.5,77,0.00,BKN,,0.00,72.0,WeatherDisplay:10.37,2013-01-02 17:32:00,
2013-01-02 12:37:00,73.5,66.9,29.95,SW,225,2.3,2.3,80,0.00,BKN,,0.00,146.0,WeatherDisplay:10.37,2013-01-02 17:37:00,
2013-01-02 12:42:00,73.4,67.2,29.95,NW,318,0.0,0.0,81,0.00,BKN,,0.00,149.0,WeatherDisplay:10.37,2013-01-02 17:42:00,
2013-01-02 12:47:00,73.7,67.5,29.94,WSW,238,8.1,8.1,81,0.00,BKN,,0.00,246.0,WeatherDisplay:10.37,2013-01-02 17:47:00,
2013-01-02 12:52:00,74.1,67.2,29.94,WSW,240,5.8,5.8,79,0.00,BKN,,0.00,221.0,WeatherDisplay:10.37,2013-01-02 17:52:00,
2013-01-02 12:57:00,75.3,68.0,29.94,SW,232,10.4,10.4,78,0.00,BKN,,0.00,580.0,WeatherDisplay:10.37,2013-01-02 17:57:00,
2013-01-02 13:02:00,76.4,68.3,29.94,WSW,240,8.1,8.1,76,0.00,BKN,,0.00,336.0,WeatherDisplay:10.37,2013-01-02 18:02:00,
2013-01-02 13:07:00,76.7,67.8,29.94,West,262,5.8,5.8,74,0.00,BKN,,0.00,371.0,WeatherDisplay:10.37,2013-01-02 18:07:00,
2013-01-02 13:12:00,77.1,67.4,29.94,WSW,240,8.1,8.1,72,0.00,BKN,,0.00,687.0,WeatherDisplay:10.37,2013-01-02 18:12:00,
2013-01-02 13:17:00,77.8,67.2,29.93,SW,235,5.5,5.5,70,0.00,BKN,,0.00,657.0,WeatherDisplay:10.37,2013-01-02 18:17:00,
2013-01-02 13:22:00,78.1,68.3,29.93,WSW,248,6.9,6.9,72,0.00,BKN,,0.00,693.0,WeatherDisplay:10.37,2013-01-02 18:22:00,
2013-01-02 13:27:00,77.9,67.7,29.93,SW,236,1.1,1.1,71,0.00,BKN,,0.00,223.0,WeatherDisplay:10.37,2013-01-02 18:27:00,
2013-01-02 13:32:00,76.6,66.5,29.93,SW,231,6.9,6.9,71,0.00,BKN,,0.00,97.0,WeatherDisplay:10.37,2013-01-02 18:32:00,
2013-01-02 13:37:00,75.6,66.7,29.93,WNW,301,2.8,2.8,74,0.00,BKN,,0.00,81.0,WeatherDisplay:10.37,2013-01-02 18:37:00,
2013-01-02 13:42:00,74.6,66.5,29.93,WSW,250,2.3,2.3,76,0.00,BKN,,0.00,176.0,WeatherDisplay:10.37,2013-01-02 18:42:00,
2013-01-02 13:47:00,74.5,66.8,29.93,WSW,250,4.6,4.6,77,0.00,BKN,,0.00,237.0,WeatherDisplay:10.37,2013-01-02 18:47:00,
2013-01-02 13:52:00,74.8,66.7,29.93,WSW,247,2.8,2.8,76,0.00,BKN,,0.00,239.0,WeatherDisplay:10.37,2013-01-02 18:52:00,
2013-01-02 13:57:00,75.0,66.5,29.93,SW,225,5.8,5.8,75,0.00,BKN,,0.00,202.0,WeatherDisplay:10.37,2013-01-02 18:57:00,
2013-01-02 14:02:00,75.5,67.0,29.93,SW,225,4.6,4.6,75,0.00,OVC,,0.00,230.0,WeatherDisplay:10.37,2013-01-02 19:02:00,
2013-01-02 14:07:00,75.8,67.3,29.93,SW,225,5.8,5.8,75,0.00,OVC,,0.00,285.0,WeatherDisplay:10.37,2013-01-02 19:07:00,
2013-01-02 14:12:00,76.1,67.6,29.93,SW,225,4.6,4.6,75,0.00,OVC,,0.00,197.0,WeatherDisplay:10.37,2013-01-02 19:12:00,
2013-01-02 14:17:00,75.8,66.9,29.92,SW,225,5.8,5.8,74,0.00,OVC,,0.00,195.0,WeatherDisplay:10.37,2013-01-02 19:17:00,
2013-01-02 14:22:00,75.5,67.0,29.92,SW,225,0.0,0.0,75,0.00,OVC,,0.00,221.0,WeatherDisplay:10.37,2013-01-02 19:22:00,
2013-01-02 14:27:00,75.8,66.9,29.92,SW,225,2.2,2.2,74,0.00,OVC,,0.00,221.0,WeatherDisplay:10.37,2013-01-02 19:27:00,
2013-01-02 14:32:00,75.5,67.0,29.92,SW,225,2.3,2.3,75,0.00,OVC,,0.00,172.0,WeatherDisplay:10.37,2013-01-02 19:32:00,
2013-01-02 14:37:00,75.3,66.8,29.92,SW,225,1.1,0.0,75,0.00,OVC,,0.00,172.0,WeatherDisplay:10.37,2013-01-02 19:37:00,
2013-01-02 14:42:00,75.5,67.0,29.92,SW,225,3.5,3.5,75,0.00,OVC,,0.00,167.0,WeatherDisplay:10.37,2013-01-02 19:42:00,
2013-01-02 14:47:00,75.5,67.4,29.92,SW,225,3.5,3.5,76,0.00,OVC,,0.00,135.0,WeatherDisplay:10.37,2013-01-02 19:47:00,
2013-01-02 14:52:00,75.3,67.2,29.92,SW,225,0.0,0.0,76,0.00,OVC,,0.00,111.0,WeatherDisplay:10.37,2013-01-02 19:52:00,
2013-01-02 14:57:00,75.0,66.9,29.92,SW,225,0.0,0.1,76,0.00,OVC,,0.00,91.0,WeatherDisplay:10.37,2013-01-02 19:57:00,
2013-01-02 15:02:00,74.6,66.5,29.92,SW,225,0.0,0.0,76,0.00,OVC,,0.00,88.0,WeatherDisplay:10.37,2013-01-02 20:02:00,
2013-01-02 15:07:00,74.3,66.6,29.92,SW,225,1.1,1.1,77,0.00,OVC,,0.00,104.0,WeatherDisplay:10.37,2013-01-02 20:07:00,
2013-01-02 15:12:00,74.2,66.5,29.92,SW,225,0.0,0.0,77,0.00,OVC,,0.00,97.0,WeatherDisplay:10.37,2013-01-02 20:12:00,
2013-01-02 15:17:00,74.1,66.4,29.92,SW,225,1.1,1.1,77,0.00,OVC,,0.00,90.0,WeatherDisplay:10.37,2013-01-02 20:17:00,
2013-01-02 15:22:00,74.1,66.8,29.92,SW,225,0.0,0.0,78,0.00,OVC,,0.00,127.0,WeatherDisplay:10.37,2013-01-02 20:22:00,
2013-01-02 15:27:00,74.3,66.6,29.92,SW,225,1.1,1.1,77,0.00,OVC,,0.00,137.0,WeatherDisplay:10.37,2013-01-02 20:27:00,
2013-01-02 15:32:00,74.3,66.6,29.93,SW,236,3.5,3.5,77,0.00,OVC,,0.00,95.0,WeatherDisplay:10.37,2013-01-02 20:32:00,
2013-01-02 15:37:00,74.2,66.5,29.93,SW,236,0.0,0.0,77,0.00,OVC,,0.00,65.0,WeatherDisplay:10.37,2013-01-02 20:37:00,
2013-01-02 15:42:00,74.0,66.7,29.93,SW,236,0.0,0.0,78,0.00,OVC,,0.00,39.0,WeatherDisplay:10.37,2013-01-02 20:42:00,
2013-01-02 15:47:00,73.6,66.3,29.93,SW,236,0.0,0.0,78,0.00,OVC,,0.00,65.0,WeatherDisplay:10.37,2013-01-02 20:47:00,
2013-01-02 15:52:00,73.4,66.5,29.93,SW,236,1.1,0.0,79,0.00,OVC,,0.00,79.0,WeatherDisplay:10.37,2013-01-02 20:52:00,
2013-01-02 15:57:00,73.4,66.5,29.93,SW,236,0.0,0.0,79,0.00,OVC,,0.00,49.0,WeatherDisplay:10.37,2013-01-02 20:57:00,
2013-01-02 16:02:00,73.3,66.4,29.93,SW,236,2.2,2.2,79,0.00,OVC,,0.00,44.0,WeatherDisplay:10.37,2013-01-02 21:02:00,
2013-01-02 16:07:00,72.8,66.3,29.93,NNW,338,5.5,5.5,80,0.00,OVC,,0.00,58.0,WeatherDisplay:10.37,2013-01-02 21:07:00,
2013-01-02 16:12:00,71.4,65.6,29.93,NW,321,5.8,5.8,82,0.00,OVC,,0.00,74.0,WeatherDisplay:10.37,2013-01-02 21:12:00,
2013-01-02 16:17:00,70.8,65.7,29.94,North,360,9.2,9.2,84,0.00,OVC,,0.00,84.0,WeatherDisplay:10.37,2013-01-02 21:17:00,
2013-01-02 16:22:00,70.7,65.6,29.94,North,355,4.6,5.1,84,0.00,OVC,,0.00,88.0,WeatherDisplay:10.37,2013-01-02 21:22:00,
2013-01-02 16:27:00,70.6,65.9,29.94,North,355,4.6,5.1,85,0.00,OVC,,0.00,69.0,WeatherDisplay:10.37,2013-01-02 21:27:00,
2013-01-02 16:32:00,70.4,65.7,29.95,NNE,12,9.2,9.2,85,0.00,OVC,,0.00,65.0,WeatherDisplay:10.37,2013-01-02 21:32:00,
2013-01-02 16:37:00,69.9,65.5,29.95,North,355,8.3,8.3,86,0.00,OVC,,0.00,49.0,WeatherDisplay:10.37,2013-01-02 21:37:00,
2013-01-02 16:42:00,69.3,65.3,29.95,North,355,8.1,8.1,87,0.00,OVC,,0.00,39.0,WeatherDisplay:10.37,2013-01-02 21:42:00,
2013-01-02 16:47:00,68.9,64.9,29.95,North,355,6.9,7.4,87,0.00,OVC,,0.00,33.0,WeatherDisplay:10.37,2013-01-02 21:47:00,
2013-01-02 16:52:00,68.5,64.8,29.95,North,355,8.3,8.3,88,0.00,OVC,,0.00,21.0,WeatherDisplay:10.37,2013-01-02 21:52:00,
2013-01-02 16:57:00,68.1,64.4,29.95,NNW,334,6.9,6.9,88,0.00,OVC,,0.00,19.0,WeatherDisplay:10.37,2013-01-02 21:57:00,
2013-01-02 17:02:00,67.8,64.4,29.95,NNW,338,6.9,6.9,89,0.00,OVC,,0.00,16.0,WeatherDisplay:10.37,2013-01-02 22:02:00,
2013-01-02 17:07:00,67.5,64.1,29.95,NNW,348,6.9,6.9,89,0.00,OVC,,0.00,9.0,WeatherDisplay:10.37,2013-01-02 22:07:00,
2013-01-02 17:12:00,67.2,63.8,29.95,North,355,8.3,9.4,89,0.00,OVC,,0.00,9.0,WeatherDisplay:10.37,2013-01-02 22:12:00,
2013-01-02 17:17:00,66.9,63.6,29.96,North,5,5.8,7.5,89,0.00,OVC,,0.00,0.0,WeatherDisplay:10.37,2013-01-02 22:17:00,
2013-01-02 17:22:00,66.6,63.3,29.96,North,355,6.9,8.4,89,0.00,OVC,,0.00,0.0,WeatherDisplay:10.37,2013-01-02 22:22:00,
2013-01-02 17:27:00,66.4,63.1,29.96,North,10,5.8,7.2,89,0.00,OVC,,0.00,0.0,WeatherDisplay:10.37,2013-01-02 22:27:00,
2013-01-02 17:32:00,66.3,63.0,29.96,North,5,6.9,6.9,89,0.00,OVC,,0.00,0.0,WeatherDisplay:10.37,2013-01-02 22:32:00,
2013-01-02 17:38:00,66.2,62.9,29.96,North,355,8.1,8.3,89,0.00,OVC,,0.00,0.0,WeatherDisplay:10.37,2013-01-02 22:38:00,
2013-01-02 17:43:00,66.1,63.1,29.96,North,5,9.2,9.2,90,0.00,OVC,,0.00,0.0,WeatherDisplay:10.37,2013-01-02 22:43:00,
2013-01-02 17:48:00,66.0,63.0,29.97,North,360,4.6,4.6,90,0.00,OVC,,0.00,0.0,WeatherDisplay:10.37,2013-01-02 22:48:00,
2013-01-02 17:53:00,65.9,62.9,29.97,North,360,2.3,2.3,90,0.00,OVC,,0.00,0.0,WeatherDisplay:10.37,2013-01-02 22:53:00,
2013-01-02 17:58:00,65.9,62.9,29.97,North,360,4.6,4.6,90,0.00,OVC,,0.00,0.0,WeatherDisplay:10.37,2013-01-02 22:58:00,
2013-01-02 18:03:00,65.9,62.9,29.97,North,360,4.1,4.1,90,0.00,OVC,,0.00,0.0,WeatherDisplay:10.37,2013-01-02 23:03:00,
2013-01-02 18:08:00,65.8,62.8,29.97,North,360,4.6,4.6,90,0.00,OVC,,0.00,0.0,WeatherDisplay:10.37,2013-01-02 23:08:00,
2013-01-02 18:13:00,65.8,62.8,29.97,NE,46,5.8,5.8,90,0.00,OVC,,0.00,0.0,WeatherDisplay:10.37,2013-01-02 23:13:00,
2013-01-02 18:18:00,65.6,62.6,29.98,NE,34,5.8,5.8,90,0.00,OVC,,0.00,0.0,WeatherDisplay:10.37,2013-01-02 23:18:00,
2013-01-02 18:23:00,65.4,62.7,29.98,NNE,33,4.6,4.6,91,0.00,OVC,,0.00,0.0,WeatherDisplay:10.37,2013-01-02 23:23:00,
2013-01-02 18:28:00,65.3,62.6,29.98,NNE,33,5.8,5.8,91,0.00,OVC,,0.00,0.0,WeatherDisplay:10.37,2013-01-02 23:28:00,
2013-01-02 18:33:00,65.2,62.5,29.98,NNE,15,8.1,8.1,91,0.00,OVC,,0.00,0.0,WeatherDisplay:10.37,2013-01-02 23:33:00,
2013-01-02 18:38:00,65.0,62.6,29.98,NNE,19,8.1,8.1,92,0.00,OVC,,0.00,0.0,WeatherDisplay:10.37,2013-01-02 23:38:00,
2013-01-02 18:43:00,64.9,62.2,29.98,NNE,19,4.6,4.6,91,0.00,OVC,,0.00,0.0,WeatherDisplay:10.37,2013-01-02 23:43:00,
2013-01-02 18:48:00,64.8,62.1,29.98,NNE,19,5.8,5.8,91,0.00,OVC,,0.00,0.0,WeatherDisplay:10.37,2013-01-02 23:48:00,
2013-01-02 18:53:00,64.8,62.1,29.98,NNE,19,5.8,5.8,91,0.00,OVC,,0.00,0.0,WeatherDisplay:10.37,2013-01-02 23:53:00,
2013-01-02 18:58:00,64.7,62.3,29.98,NNE,19,2.3,2.4,92,0.00,OVC,,0.00,0.0,WeatherDisplay:10.37,2013-01-02 23:58:00,
2013-01-02 19:03:00,64.8,62.4,29.99,NNE,19,4.6,4.6,92,0.00,OVC,,0.00,0.0,WeatherDisplay:10.37,2013-01-03 00:03:00,
2013-01-02 19:08:00,64.7,62.3,29.99,NNE,19,1.4,1.4,92,0.00,OVC,,0.00,0.0,WeatherDisplay:10.37,2013-01-03 00:08:00,
2013-01-02 19:13:00,64.7,62.3,29.99,NNE,19,0.0,0.0,92,0.00,OVC,,0.00,0.0,WeatherDisplay:10.37,2013-01-03 00:13:00,
2013-01-02 19:18:00,64.7,62.3,29.99,NNE,19,1.1,1.1,92,0.00,OVC,,0.00,0.0,WeatherDisplay:10.37,2013-01-03 00:18:00,
2013-01-02 19:23:00,64.7,62.3,29.99,NNE,19,1.1,1.1,92,0.00,OVC,,0.00,0.0,WeatherDisplay:10.37,2013-01-03 00:23:00,
2013-01-02 19:28:00,64.8,62.4,29.99,NNE,22,5.8,5.8,92,0.00,OVC,,0.00,0.0,WeatherDisplay:10.37,2013-01-03 00:28:00,
2013-01-02 19:33:00,64.5,62.1,29.99,NNE,32,9.2,9.2,92,0.00,OVC,,0.00,0.0,WeatherDisplay:10.37,2013-01-03 00:33:00,
2013-01-02 19:38:00,64.4,62.0,29.99,NE,45,8.1,8.1,92,0.00,OVC,,0.00,0.0,WeatherDisplay:10.37,2013-01-03 00:38:00,
2013-01-02 19:44:00,64.3,61.9,29.99,NE,44,6.9,6.9,92,0.00,OVC,,0.00,0.0,WeatherDisplay:10.37,2013-01-03 00:44:00,
2013-01-02 19:49:00,64.2,61.8,30.00,ENE,65,5.8,5.8,92,0.00,OVC,,0.00,0.0,WeatherDisplay:10.37,2013-01-03 00:49:00,
2013-01-02 19:54:00,64.1,61.7,30.00,NNE,28,4.6,4.6,92,0.00,OVC,,0.00,0.0,WeatherDisplay:10.37,2013-01-03 00:54:00,
2013-01-02 19:59:00,64.1,61.7,30.00,NE,34,2.3,2.3,92,0.00,OVC,,0.00,0.0,WeatherDisplay:10.37,2013-01-03 00:59:00,
2013-01-02 20:04:00,64.0,61.6,30.01,NE,34,8.1,8.1,92,0.00,OVC,,0.00,0.0,WeatherDisplay:10.37,2013-01-03 01:04:00,
2013-01-02 20:09:00,63.9,61.5,30.01,NE,34,4.6,4.6,92,0.00,OVC,,0.00,0.0,WeatherDisplay:10.37,2013-01-03 01:09:00,
2013-01-02 20:14:00,63.8,61.4,30.01,NE,34,1.1,1.1,92,0.00,OVC,,0.00,0.0,WeatherDisplay:10.37,2013-01-03 01:14:00,
2013-01-02 20:19:00,63.8,61.4,30.01,NE,55,4.6,4.6,92,0.00,OVC,,0.00,0.0,WeatherDisplay:10.37,2013-01-03 01:19:00,
2013-01-02 20:24:00,63.8,61.4,30.01,NE,55,1.1,1.1,92,0.00,OVC,,0.00,0.0,WeatherDisplay:10.37,2013-01-03 01:24:00,
2013-01-02 20:29:00,63.7,61.3,30.01,NE,55,3.5,3.5,92,0.00,OVC,,0.00,0.0,WeatherDisplay:10.37,2013-01-03 01:29:00,
2013-01-02 20:34:00,63.6,61.2,30.01,NE,55,1.1,1.1,92,0.00,OVC,,0.00,0.0,WeatherDisplay:10.37,2013-01-03 01:34:00,
2013-01-02 20:39:00,63.5,61.1,30.01,NE,55,0.0,0.0,92,0.00,OVC,,0.00,0.0,WeatherDisplay:10.37,2013-01-03 01:39:00,
2013-01-02 20:44:00,63.5,61.1,30.00,NE,55,3.5,3.5,92,0.00,OVC,,0.00,0.0,WeatherDisplay:10.37,2013-01-03 01:44:00,
2013-01-02 20:49:00,63.5,61.1,30.00,NE,55,3.5,3.5,92,0.00,OVC,,0.00,0.0,WeatherDisplay:10.37,2013-01-03 01:49:00,
2013-01-02 20:54:00,63.4,61.0,30.00,NE,55,2.3,2.3,92,0.00,OVC,,0.00,0.0,WeatherDisplay:10.37,2013-01-03 01:54:00,
2013-01-02 20:59:00,63.3,60.9,30.01,NE,55,0.0,0.0,92,0.00,OVC,,0.00,0.0,WeatherDisplay:10.37,2013-01-03 01:59:00,
2013-01-02 21:04:00,63.2,60.8,30.01,NE,55,3.5,3.5,92,0.00,OVC,,0.00,0.0,WeatherDisplay:10.37,2013-01-03 02:04:00,
2013-01-02 21:09:00,63.1,60.7,30.01,NE,55,2.3,2.3,92,0.00,OVC,,0.00,0.0,WeatherDisplay:10.37,2013-01-03 02:09:00,
2013-01-02 21:14:00,63.1,60.7,30.01,NE,55,3.5,3.5,92,0.00,OVC,,0.00,0.0,WeatherDisplay:10.37,2013-01-03 02:14:00,
2013-01-02 21:19:00,63.1,60.7,30.01,NE,55,1.1,1.1,92,0.00,OVC,,0.00,0.0,WeatherDisplay:10.37,2013-01-03 02:19:00,
2013-01-02 21:24:00,63.1,60.7,30.01,NE,55,2.3,2.3,92,0.00,OVC,,0.00,0.0,WeatherDisplay:10.37,2013-01-03 02:24:00,
2013-01-02 21:29:00,63.1,60.7,30.02,NE,55,0.0,0.0,92,0.00,OVC,,0.00,0.0,WeatherDisplay:10.37,2013-01-03 02:29:00,
2013-01-02 21:34:00,63.1,60.7,30.02,NE,55,0.0,0.0,92,0.00,OVC,,0.00,0.0,WeatherDisplay:10.37,2013-01-03 02:34:00,
2013-01-02 21:39:00,63.1,60.7,30.02,NE,55,1.1,1.1,92,0.00,OVC,,0.00,0.0,WeatherDisplay:10.37,2013-01-03 02:39:00,
2013-01-02 21:44:00,63.1,60.7,30.02,NE,55,0.0,0.0,92,0.00,OVC,,0.00,0.0,WeatherDisplay:10.37,2013-01-03 02:44:00,
2013-01-02 21:49:00,63.1,60.7,30.02,NE,55,0.0,0.2,92,0.00,OVC,,0.00,0.0,WeatherDisplay:10.37,2013-01-03 02:49:00,
2013-01-02 21:54:00,63.0,60.6,30.02,NE,55,1.1,1.1,92,0.00,OVC,,0.00,0.0,WeatherDisplay:10.37,2013-01-03 02:54:00,
2013-01-02 21:59:00,63.0,60.6,30.02,NE,55,2.3,2.3,92,0.00,OVC,,0.00,0.0,WeatherDisplay:10.37,2013-01-03 02:59:00,
2013-01-02 22:04:00,63.0,60.6,30.02,NE,55,1.1,1.1,92,0.00,OVC,,0.00,0.0,WeatherDisplay:10.37,2013-01-03 03:04:00,
2013-01-02 22:09:00,62.9,60.5,30.02,NE,55,1.1,1.1,92,0.00,OVC,,0.00,0.0,WeatherDisplay:10.37,2013-01-03 03:09:00,
2013-01-02 22:14:00,62.9,60.5,30.03,NE,55,1.1,0.0,92,0.00,OVC,,0.00,0.0,WeatherDisplay:10.37,2013-01-03 03:14:00,
2013-01-02 22:19:00,62.8,60.4,30.03,NE,55,1.1,1.1,92,0.00,OVC,,0.00,0.0,WeatherDisplay:10.37,2013-01-03 03:19:00,
2013-01-02 22:24:00,62.8,60.4,30.03,NE,55,0.0,0.0,92,0.00,OVC,,0.00,0.0,WeatherDisplay:10.37,2013-01-03 03:24:00,
2013-01-02 22:29:00,62.8,60.4,30.03,NE,55,0.0,0.0,92,0.00,OVC,,0.00,0.0,WeatherDisplay:10.37,2013-01-03 03:29:00,
2013-01-02 22:36:00,62.7,60.3,30.03,NE,55,0.0,0.0,92,0.00,OVC,,0.00,0.0,WeatherDisplay:10.37,2013-01-03 03:36:00,
2013-01-02 22:42:00,62.7,60.3,30.03,NE,55,0.0,0.0,92,0.00,OVC,,0.00,0.0,WeatherDisplay:10.37,2013-01-03 03:42:00,
2013-01-02 22:47:00,62.6,60.2,30.02,NE,55,0.0,0.0,92,0.00,-RA,,0.00,0.0,WeatherDisplay:10.37,2013-01-03 03:47:00,
2013-01-02 22:52:00,62.6,60.2,30.02,NE,55,2.3,2.3,92,0.00,-RA,,0.00,0.0,WeatherDisplay:10.37,2013-01-03 03:52:00,
2013-01-02 22:57:00,62.5,60.1,30.02,NE,55,0.0,0.1,92,0.00,-RA,,0.00,0.0,WeatherDisplay:10.37,2013-01-03 03:57:00,
2013-01-02 23:02:00,62.4,60.0,30.02,NE,55,0.0,0.0,92,0.00,-RA,,0.00,0.0,WeatherDisplay:10.37,2013-01-03 04:02:00,
2013-01-02 23:07:00,62.3,60.2,30.02,NE,55,2.3,2.3,93,0.00,-RA,,0.00,0.0,WeatherDisplay:10.37,2013-01-03 04:07:00,
2013-01-02 23:12:00,62.3,59.9,30.02,NE,55,0.0,0.0,92,0.00,-RA,,0.00,0.0,WeatherDisplay:10.37,2013-01-03 04:12:00,
2013-01-02 23:18:00,62.2,60.2,30.01,NE,55,0.0,0.0,93,0.00,OVC,,0.00,0.0,WeatherDisplay:10.37,2013-01-03 04:18:00,
2013-01-02 23:23:00,62.3,60.2,30.01,NE,55,2.3,2.3,93,0.00,OVC,,0.00,0.0,WeatherDisplay:10.37,2013-01-03 04:23:00,
2013-01-02 23:28:00,62.3,60.2,30.01,NE,55,0.0,0.0,93,0.00,OVC,,0.00,0.0,WeatherDisplay:10.37,2013-01-03 04:28:00,
2013-01-02 23:33:00,62.2,59.8,30.01,NE,55,0.0,0.0,92,0.00,OVC,,0.00,0.0,WeatherDisplay:10.37,2013-01-03 04:33:00,
2013-01-02 23:38:00,62.1,60.1,30.01,NE,55,0.0,0.0,93,0.00,OVC,,0.00,0.0,WeatherDisplay:10.37,2013-01-03 04:38:00,
2013-01-02 23:43:00,62.1,60.1,30.01,NE,55,0.0,0.0,93,0.00,OVC,,0.00,0.0,WeatherDisplay:10.37,2013-01-03 04:43:00,
2013-01-02 23:48:00,62.1,60.1,30.01,NE,55,0.0,0.0,93,0.00,OVC,,0.00,0.0,WeatherDisplay:10.37,2013-01-03 04:48:00,
2013-01-02 23:53:00,62.1,60.1,30.01,NE,55,0.0,0.0,93,0.00,OVC,,0.00,0.0,WeatherDisplay:10.37,2013-01-03 04:53:00,
2013-01-02 23:58:00,62.1,60.1,30.01,NE,55,0.0,0.0,93,0.00,OVC,,0.00,0.0,WeatherDisplay:10.37,2013-01-03 04:58:00,